createdAt,value
2018-05-15T00:02:03.515Z,77.88
2018-05-15T00:04:31.025Z,78.19
2018-05-15T00:06:58.549Z,78.60
2018-05-15T00:09:26.098Z,78.34
2018-05-15T00:11:53.620Z,78.35
2018-05-15T00:14:21.169Z,78.49
2018-05-15T00:16:48.715Z,78.54
2018-05-15T00:19:16.240Z,78.40
2018-05-15T00:21:43.798Z,78.25
2018-05-15T00:24:11.322Z,77.08
2018-05-15T00:26:38.839Z,76.58
2018-05-15T00:29:06.431Z,75.76
2018-05-15T00:31:33.947Z,76.52
2018-05-15T00:34:01.486Z,76.48
2018-05-15T00:36:29.156Z,76.31
2018-05-15T00:38:56.697Z,76.54
2018-05-15T00:41:24.236Z,76.70
2018-05-15T00:43:51.752Z,77.02
2018-05-15T00:46:19.267Z,76.17
2018-05-15T00:48:46.773Z,76.33
2018-05-15T00:51:14.316Z,76.23
2018-05-15T00:53:41.836Z,76.12
2018-05-15T00:56:09.364Z,76.82
2018-05-15T00:58:36.884Z,77.37
2018-05-15T01:01:04.397Z,77.30
2018-05-15T01:03:31.908Z,77.20
2018-05-15T01:05:59.453Z,77.49
2018-05-15T01:08:26.977Z,77.54
2018-05-15T01:10:54.511Z,77.04
2018-05-15T01:13:22.044Z,76.86
2018-05-15T01:15:49.560Z,77.02
2018-05-15T01:18:17.153Z,77.35
2018-05-15T01:20:44.731Z,77.62
2018-05-15T01:23:12.291Z,77.34
2018-05-15T01:25:39.845Z,77.50
2018-05-15T01:28:07.369Z,77.11
2018-05-15T01:30:34.910Z,77.63
2018-05-15T01:33:02.461Z,77.74
2018-05-15T01:35:30.009Z,77.69
2018-05-15T01:37:57.594Z,77.49
2018-05-15T01:40:25.106Z,77.12
2018-05-15T01:42:52.617Z,77.58
2018-05-15T01:45:20.128Z,77.38
2018-05-15T01:47:47.632Z,77.62
2018-05-15T01:50:15.130Z,77.31
2018-05-15T01:52:42.664Z,76.86
2018-05-15T01:55:10.176Z,77.30
2018-05-15T01:57:37.699Z,77.10
2018-05-15T02:00:06.005Z,78.26
2018-05-15T02:02:33.522Z,78.38
2018-05-15T02:05:01.114Z,78.26
2018-05-15T02:07:28.628Z,77.72
2018-05-15T02:09:56.121Z,77.92
2018-05-15T02:12:23.634Z,78.14
2018-05-15T02:14:51.144Z,78.09
2018-05-15T02:17:19.575Z,78.70
2018-05-15T02:19:47.089Z,78.70
2018-05-15T02:22:14.605Z,78.92
2018-05-15T02:24:42.132Z,78.75
2018-05-15T02:27:09.644Z,78.74
2018-05-15T02:29:37.160Z,78.82
2018-05-15T02:32:04.671Z,78.65
2018-05-15T02:34:32.181Z,78.39
2018-05-15T02:36:59.703Z,78.29
2018-05-15T02:39:27.267Z,78.02
2018-05-15T02:41:54.817Z,77.93
2018-05-15T02:44:22.363Z,77.79
2018-05-15T02:46:49.872Z,77.73
2018-05-15T02:49:17.397Z,77.39
2018-05-15T02:51:45.016Z,77.90
2018-05-15T02:54:12.517Z,77.84
2018-05-15T02:56:40.020Z,77.91
2018-05-15T02:59:07.545Z,78.63
2018-05-15T03:01:35.052Z,77.92
2018-05-15T03:04:02.580Z,77.50
2018-05-15T03:06:30.087Z,77.34
2018-05-15T03:08:57.620Z,77.54
2018-05-15T03:11:25.132Z,78.94
2018-05-15T03:13:52.644Z,78.49
2018-05-15T03:16:20.206Z,78.68
2018-05-15T03:18:47.723Z,79.77
2018-05-15T03:21:15.252Z,79.36
2018-05-15T03:23:42.771Z,77.51
2018-05-15T03:26:10.285Z,78.29
2018-05-15T03:28:37.821Z,79.06
2018-05-15T03:31:05.356Z,78.61
2018-05-15T03:33:32.872Z,78.37
2018-05-15T03:36:00.392Z,78.26
2018-05-15T03:38:27.898Z,78.18
2018-05-15T03:40:55.417Z,77.76
2018-05-15T03:43:22.953Z,77.56
2018-05-15T03:45:50.469Z,77.25
2018-05-15T03:48:17.999Z,77.01
2018-05-15T03:50:45.508Z,77.51
2018-05-15T03:53:13.059Z,77.29
2018-05-15T03:55:40.620Z,77.29
2018-05-15T03:58:08.127Z,77.43
2018-05-15T04:00:47.366Z,77.17
2018-05-15T04:03:26.683Z,77.51
2018-05-15T04:06:06.049Z,77.45
2018-05-15T04:08:33.884Z,76.86
2018-05-15T04:11:01.443Z,76.27
2018-05-15T04:13:28.968Z,75.80
2018-05-15T04:15:56.520Z,76.07
2018-05-15T04:18:24.031Z,76.24
2018-05-15T04:20:51.636Z,75.83
2018-05-15T04:23:19.107Z,75.93
2018-05-15T04:25:46.638Z,75.78
2018-05-15T04:28:14.263Z,75.03
2018-05-15T04:30:41.724Z,74.76
2018-05-15T04:33:09.255Z,75.60
2018-05-15T04:35:36.865Z,74.74
2018-05-15T04:38:04.387Z,74.76
2018-05-15T04:40:31.888Z,75.78
2018-05-15T04:42:59.871Z,76.48
2018-05-15T04:45:27.376Z,76.17
2018-05-15T04:47:54.878Z,76.02
2018-05-15T04:50:22.407Z,76.26
2018-05-15T04:52:49.906Z,76.15
2018-05-15T04:55:17.433Z,76.40
2018-05-15T04:57:44.957Z,75.85
2018-05-15T05:00:12.522Z,75.64
2018-05-15T05:02:40.040Z,75.89
2018-05-15T05:05:07.585Z,75.34
2018-05-15T05:07:35.215Z,75.14
2018-05-15T05:10:02.761Z,75.77
2018-05-15T05:12:30.268Z,75.41
2018-05-15T05:14:57.778Z,75.51
2018-05-15T05:17:25.347Z,74.34
2018-05-15T05:19:52.870Z,74.61
2018-05-15T05:22:20.431Z,73.93
2018-05-15T05:24:47.951Z,73.90
2018-05-15T05:27:15.470Z,73.45
2018-05-15T05:29:43.007Z,74.05
2018-05-15T05:32:10.566Z,73.47
2018-05-15T05:34:38.095Z,73.51
2018-05-15T05:37:05.640Z,73.88
2018-05-15T05:39:33.160Z,73.11
2018-05-15T05:42:00.667Z,73.20
2018-05-15T05:44:28.213Z,72.85
2018-05-15T05:46:56.111Z,72.74
2018-05-15T05:49:23.632Z,72.45
2018-05-15T05:51:51.139Z,71.85
2018-05-15T05:54:18.652Z,71.68
2018-05-15T05:56:46.178Z,71.68
2018-05-15T05:59:13.741Z,71.84
2018-05-15T06:01:41.251Z,71.01
2018-05-15T06:04:08.773Z,70.95
2018-05-15T06:06:37.160Z,70.30
2018-05-15T06:09:05.352Z,70.16
2018-05-15T06:11:32.931Z,68.56
2018-05-15T06:14:00.440Z,67.98
2018-05-15T06:16:27.945Z,67.82
2018-05-15T06:18:55.472Z,67.45
2018-05-15T06:21:23.035Z,66.94
2018-05-15T06:23:50.562Z,67.20
2018-05-15T06:26:18.078Z,66.64
2018-05-15T06:28:45.606Z,66.72
2018-05-15T06:31:13.107Z,65.93
2018-05-15T06:33:40.620Z,66.38
2018-05-15T06:36:08.158Z,64.74
2018-05-15T06:38:35.789Z,64.68
2018-05-15T06:41:03.240Z,64.98
2018-05-15T06:43:30.759Z,64.68
2018-05-15T06:45:58.278Z,64.20
2018-05-15T06:48:25.798Z,63.25
2018-05-15T06:50:53.315Z,63.47
2018-05-15T06:53:20.904Z,62.80
2018-05-15T06:55:48.412Z,62.92
2018-05-15T06:58:15.922Z,62.98
2018-05-15T07:00:43.446Z,63.76
2018-05-15T07:03:10.943Z,63.37
2018-05-15T07:05:38.488Z,63.19
2018-05-15T07:08:05.998Z,63.14
2018-05-15T07:10:33.513Z,62.17
2018-05-15T07:13:01.034Z,62.95
2018-05-15T07:15:28.566Z,62.76
2018-05-15T07:17:56.091Z,62.40
2018-05-15T07:20:23.646Z,62.53
2018-05-15T07:22:51.180Z,62.90
2018-05-15T07:25:18.704Z,62.63
2018-05-15T07:27:46.259Z,61.10
2018-05-15T07:30:13.818Z,61.83
2018-05-15T07:32:41.338Z,61.88
2018-05-15T07:35:08.852Z,61.22
2018-05-15T07:37:36.407Z,60.78
2018-05-15T07:40:03.950Z,60.80
2018-05-15T07:42:31.466Z,60.96
2018-05-15T07:44:58.980Z,59.63
2018-05-15T07:47:26.496Z,60.11
2018-05-15T07:49:54.041Z,59.70
2018-05-15T07:52:21.561Z,59.84
2018-05-15T07:54:49.077Z,59.75
2018-05-15T07:57:16.594Z,59.48
2018-05-15T07:59:44.134Z,58.65
2018-05-15T08:02:11.672Z,58.75
2018-05-15T08:04:39.227Z,58.47
2018-05-15T08:07:06.791Z,58.07
2018-05-15T08:09:34.295Z,58.28
2018-05-15T08:12:01.823Z,58.33
2018-05-15T08:14:29.334Z,58.14
2018-05-15T08:16:56.868Z,58.42
2018-05-15T08:19:24.381Z,56.24
2018-05-15T08:21:51.885Z,57.25
2018-05-15T08:24:19.423Z,56.83
2018-05-15T08:26:46.977Z,56.51
2018-05-15T08:29:14.480Z,56.08
2018-05-15T08:31:41.996Z,56.37
2018-05-15T08:34:09.519Z,55.48
2018-05-15T08:36:37.038Z,56.39
2018-05-15T08:39:04.572Z,56.03
2018-05-15T08:41:32.098Z,54.98
2018-05-15T08:43:59.614Z,53.10
2018-05-15T08:46:27.189Z,53.52
2018-05-15T08:48:54.691Z,53.02
2018-05-15T08:51:22.201Z,53.47
2018-05-15T08:53:49.724Z,53.28
2018-05-15T08:56:17.231Z,53.05
2018-05-15T08:58:45.523Z,53.00
2018-05-15T09:01:13.111Z,54.26
2018-05-15T09:03:40.596Z,54.00
2018-05-15T09:06:08.120Z,52.94
2018-05-15T09:08:35.644Z,52.76
2018-05-15T09:11:03.194Z,53.56
2018-05-15T09:13:30.728Z,52.99
2018-05-15T09:15:58.278Z,52.19
2018-05-15T09:18:25.780Z,51.01
2018-05-15T09:20:53.352Z,51.68
2018-05-15T09:23:20.865Z,52.38
2018-05-15T09:25:49.031Z,52.41
2018-05-15T09:28:16.535Z,51.52
2018-05-15T09:30:44.103Z,51.96
2018-05-15T09:33:11.614Z,50.83
2018-05-15T09:35:39.119Z,48.88
2018-05-15T09:38:06.633Z,49.43
2018-05-15T09:40:34.145Z,50.08
2018-05-15T09:43:01.657Z,49.39
2018-05-15T09:45:29.183Z,48.97
2018-05-15T09:47:56.692Z,48.89
2018-05-15T09:50:24.217Z,48.79
2018-05-15T09:52:51.743Z,47.93
2018-05-15T09:55:19.266Z,48.43
2018-05-15T09:57:46.774Z,49.53
2018-05-15T10:00:14.327Z,49.46
2018-05-15T10:02:41.847Z,49.96
2018-05-15T10:05:09.361Z,48.85
2018-05-15T10:07:36.891Z,47.52
2018-05-15T10:10:04.460Z,47.21
2018-05-15T10:12:31.983Z,47.35
2018-05-15T10:14:59.537Z,46.92
2018-05-15T10:17:27.051Z,47.26
2018-05-15T10:19:54.664Z,47.01
2018-05-15T10:22:22.135Z,47.22
2018-05-15T10:24:49.655Z,47.61
2018-05-15T10:27:17.151Z,46.90
2018-05-15T10:29:44.655Z,46.49
2018-05-15T10:32:12.169Z,46.70
2018-05-15T10:34:39.740Z,47.11
2018-05-15T10:37:07.238Z,46.53
2018-05-15T10:39:34.749Z,46.74
2018-05-15T10:42:02.280Z,46.79
2018-05-15T10:44:29.834Z,44.70
2018-05-15T10:46:57.367Z,43.41
2018-05-15T10:49:24.867Z,41.77
2018-05-15T10:51:52.377Z,40.88
2018-05-15T10:54:19.902Z,41.01
2018-05-15T10:56:47.431Z,39.07
2018-05-15T10:59:14.936Z,41.00
2018-05-15T11:01:42.448Z,43.28
2018-05-15T11:04:10.022Z,44.80
2018-05-15T11:06:37.553Z,45.03
2018-05-15T11:09:05.078Z,45.18
2018-05-15T11:11:32.630Z,45.51
2018-05-15T11:14:00.152Z,43.92
2018-05-15T11:16:27.656Z,45.44
2018-05-15T11:18:55.209Z,44.56
2018-05-15T11:21:34.567Z,44.37
2018-05-15T11:27:04.299Z,42.68
2018-05-15T11:29:31.816Z,43.77
2018-05-15T11:31:59.342Z,43.81
2018-05-15T11:34:26.864Z,44.86
2018-05-15T11:36:54.420Z,46.06
2018-05-15T11:39:21.933Z,46.09
2018-05-15T11:41:49.464Z,46.81
2018-05-15T11:44:16.985Z,46.30
2018-05-15T11:46:44.503Z,43.66
2018-05-15T11:49:12.701Z,35.91
2018-05-15T11:51:40.035Z,37.06
2018-05-15T11:54:07.081Z,35.40
2018-05-15T11:56:34.679Z,35.34
2018-05-15T11:59:02.144Z,34.88
2018-05-15T12:01:29.684Z,35.10
2018-05-15T12:03:57.948Z,36.16
2018-05-15T12:06:25.524Z,34.63
2018-05-15T12:08:52.967Z,33.59
2018-05-15T12:11:20.560Z,33.14
2018-05-15T12:13:48.152Z,33.54
2018-05-15T12:16:15.672Z,34.00
2018-05-15T12:18:43.197Z,33.26
2018-05-15T12:21:10.895Z,33.13
2018-05-15T12:23:38.264Z,34.74
2018-05-15T12:26:05.775Z,35.05
2018-05-15T12:28:33.285Z,32.47
2018-05-15T12:31:00.811Z,32.42
2018-05-15T12:33:28.303Z,32.69
2018-05-15T12:35:55.872Z,31.90
2018-05-15T12:38:23.413Z,31.36
2018-05-15T12:40:50.927Z,30.43
2018-05-15T12:43:18.427Z,28.17
2018-05-15T12:45:45.951Z,31.66
2018-05-15T12:48:13.481Z,32.31
2018-05-15T12:50:40.987Z,32.74
2018-05-15T12:53:08.515Z,34.24
2018-05-15T12:55:36.039Z,33.63
2018-05-15T12:58:03.556Z,34.11
2018-05-15T13:00:31.090Z,35.00
2018-05-15T13:02:58.589Z,35.56
2018-05-15T13:05:26.117Z,36.15
2018-05-15T13:07:53.645Z,34.95
2018-05-15T13:10:21.183Z,34.26
2018-05-15T13:12:48.742Z,33.52
2018-05-15T13:15:16.259Z,32.61
2018-05-15T13:17:43.775Z,32.80
2018-05-15T13:20:11.306Z,33.11
2018-05-15T13:22:38.811Z,30.78
2018-05-15T13:25:06.327Z,30.66
2018-05-15T13:27:33.836Z,30.60
2018-05-15T13:30:01.355Z,32.31
2018-05-15T13:32:28.871Z,32.41
2018-05-15T13:34:56.392Z,31.90
2018-05-15T13:37:23.907Z,32.22
2018-05-15T13:39:51.432Z,32.66
2018-05-15T13:42:18.947Z,33.49
2018-05-15T13:44:46.465Z,33.35
2018-05-15T13:47:13.966Z,34.15
2018-05-15T13:49:41.468Z,34.59
2018-05-15T13:52:09.040Z,35.55
2018-05-15T13:54:36.547Z,35.67
2018-05-15T13:57:04.086Z,35.06
2018-05-15T13:59:31.591Z,35.08
2018-05-15T14:01:59.104Z,34.96
2018-05-15T14:04:26.705Z,34.59
2018-05-15T14:06:54.199Z,35.75
2018-05-15T14:09:21.711Z,35.61
2018-05-15T14:11:49.223Z,36.59
2018-05-15T14:14:16.751Z,38.52
2018-05-15T14:16:44.277Z,39.90
2018-05-15T14:19:11.812Z,43.71
2018-05-15T14:21:39.345Z,45.07
2018-05-15T14:24:06.838Z,46.64
2018-05-15T14:26:34.355Z,48.08
2018-05-15T14:29:01.875Z,48.56
2018-05-15T14:31:29.459Z,48.17
2018-05-15T14:33:56.992Z,48.15
2018-05-15T14:36:24.516Z,48.04
2018-05-15T14:38:52.041Z,49.66
2018-05-15T14:41:26.281Z,51.03
2018-05-15T14:43:53.830Z,51.63
2018-05-15T14:46:21.345Z,48.07
2018-05-15T14:48:48.904Z,46.81
2018-05-15T14:51:31.316Z,44.26
2018-05-15T14:53:58.907Z,43.83
2018-05-15T14:56:26.413Z,42.96
2018-05-15T14:58:53.914Z,44.00
2018-05-15T15:01:21.429Z,44.10
2018-05-15T15:03:48.933Z,44.01
2018-05-15T15:06:16.430Z,44.89
2018-05-15T15:08:43.961Z,46.66
2018-05-15T15:11:11.479Z,48.89
2018-05-15T15:13:38.966Z,50.65
2018-05-15T15:16:06.507Z,49.50
2018-05-15T15:18:34.016Z,52.51
2018-05-15T15:21:01.517Z,49.76
2018-05-15T15:23:29.037Z,54.63
2018-05-15T15:25:56.577Z,54.85
2018-05-15T15:28:24.149Z,58.40
2018-05-15T15:30:51.747Z,60.25
2018-05-15T15:33:19.265Z,58.90
2018-05-15T15:35:46.785Z,59.23
2018-05-15T15:38:14.311Z,61.51
2018-05-15T15:40:41.798Z,63.19
2018-05-15T15:43:09.299Z,63.26
2018-05-15T15:45:36.816Z,61.97
2018-05-15T15:48:04.319Z,63.20
2018-05-15T15:50:32.848Z,65.11
2018-05-15T15:53:00.348Z,67.26
2018-05-15T15:55:28.214Z,70.57
2018-05-15T15:57:55.776Z,65.95
2018-05-15T16:00:23.303Z,62.09
2018-05-15T16:02:50.832Z,68.10
2018-05-15T16:05:18.387Z,66.54
2018-05-15T16:07:45.907Z,60.69
2018-05-15T16:10:13.524Z,60.37
2018-05-15T16:12:40.979Z,61.48
2018-05-15T16:15:08.559Z,60.33
2018-05-15T16:17:36.154Z,56.43
2018-05-15T16:20:03.665Z,55.94
2018-05-15T16:22:31.169Z,54.70
2018-05-15T16:24:58.675Z,53.83
2018-05-15T16:27:26.219Z,53.96
2018-05-15T16:29:53.731Z,56.01
2018-05-15T16:32:21.231Z,61.67
2018-05-15T16:34:48.776Z,62.16
2018-05-15T16:37:16.283Z,63.33
2018-05-15T16:39:43.785Z,65.18
2018-05-15T16:42:11.346Z,62.12
2018-05-15T16:44:38.847Z,61.60
2018-05-15T16:47:06.365Z,63.14
2018-05-15T16:49:33.945Z,65.09
2018-05-15T16:52:01.594Z,62.61
2018-05-15T16:54:29.139Z,62.71
2018-05-15T16:56:56.774Z,62.33
2018-05-15T16:59:24.327Z,65.61
2018-05-15T17:01:52.681Z,63.83
2018-05-15T17:04:20.225Z,65.85
2018-05-15T17:06:47.715Z,65.21
2018-05-15T17:09:15.221Z,65.60
2018-05-15T17:11:42.719Z,65.81
2018-05-15T17:14:10.210Z,66.49
2018-05-15T17:16:37.716Z,65.74
2018-05-15T17:19:05.240Z,66.80
2018-05-15T17:21:32.791Z,67.75
2018-05-15T17:24:00.363Z,65.43
2018-05-15T17:26:27.901Z,64.96
2018-05-15T17:28:55.465Z,64.68
2018-05-15T17:31:23.833Z,64.39
2018-05-15T17:33:51.313Z,66.16
2018-05-15T17:36:18.831Z,67.68
2018-05-15T17:38:46.372Z,67.82
2018-05-15T17:41:13.915Z,67.23
2018-05-15T17:43:41.509Z,67.17
2018-05-15T17:46:09.034Z,64.29
2018-05-15T17:48:36.573Z,64.23
2018-05-15T17:51:04.175Z,64.10
2018-05-15T17:53:32.457Z,64.74
2018-05-15T17:55:59.990Z,64.40
2018-05-15T17:58:27.525Z,65.53
2018-05-15T18:00:55.029Z,66.46
2018-05-15T18:03:22.542Z,65.60
2018-05-15T18:05:50.117Z,65.76
2018-05-15T18:08:17.607Z,64.61
2018-05-15T18:10:45.133Z,64.72
2018-05-15T18:13:12.701Z,65.26
2018-05-15T18:15:40.279Z,67.27
2018-05-15T18:18:07.775Z,67.51
2018-05-15T18:20:35.339Z,66.78
2018-05-15T18:23:02.856Z,67.80
2018-05-15T18:25:30.360Z,67.75
2018-05-15T18:27:57.901Z,66.33
2018-05-15T18:30:26.422Z,65.90
2018-05-15T18:32:54.033Z,64.58
2018-05-15T18:35:22.296Z,63.98
2018-05-15T18:37:49.846Z,64.88
2018-05-15T18:40:17.368Z,65.56
2018-05-15T18:42:44.884Z,66.17
2018-05-15T18:45:12.393Z,67.34
2018-05-15T18:47:39.911Z,67.60
2018-05-15T18:50:07.424Z,67.48
2018-05-15T18:52:35.036Z,67.18
2018-05-15T18:55:02.546Z,64.81
2018-05-15T18:57:30.105Z,65.92
2018-05-15T18:59:57.621Z,66.34
2018-05-15T19:02:25.118Z,66.38
2018-05-15T19:04:52.665Z,65.36
2018-05-15T19:07:20.163Z,66.14
2018-05-15T19:09:47.723Z,67.43
2018-05-15T19:12:15.297Z,66.89
2018-05-15T19:14:42.798Z,68.06
2018-05-15T19:17:10.445Z,69.17
2018-05-15T19:19:37.921Z,69.43
2018-05-15T19:22:05.442Z,70.45
2018-05-15T19:24:32.978Z,71.89
2018-05-15T19:27:00.628Z,73.20
2018-05-15T19:29:28.082Z,73.43
2018-05-15T19:31:55.597Z,73.94
2018-05-15T19:34:24.894Z,73.34
2018-05-15T19:37:07.277Z,75.02
2018-05-15T19:39:35.012Z,74.41
2018-05-15T19:42:02.516Z,73.86
2018-05-15T19:44:30.018Z,73.50
2018-05-15T19:46:57.530Z,72.36
2018-05-15T19:49:25.076Z,72.53
2018-05-15T19:51:52.599Z,73.01
2018-05-15T19:54:20.136Z,74.26
2018-05-15T19:56:47.638Z,74.22
2018-05-15T19:59:15.164Z,72.31
2018-05-15T20:01:42.710Z,72.52
2018-05-15T20:04:10.214Z,73.36
2018-05-15T20:06:37.716Z,73.50
2018-05-15T20:09:06.312Z,73.26
2018-05-15T20:11:33.703Z,73.36
2018-05-15T20:14:01.252Z,73.36
2018-05-15T20:16:28.751Z,73.62
2018-05-15T20:18:56.251Z,74.03
2018-05-15T20:21:23.745Z,73.99
2018-05-15T20:23:51.365Z,74.31
2018-05-15T20:26:18.959Z,74.36
2018-05-15T20:28:46.608Z,73.85
2018-05-15T20:31:14.117Z,74.30
2018-05-15T20:33:41.627Z,74.83
2018-05-15T20:36:09.216Z,75.53
2018-05-15T20:38:36.723Z,75.81
2018-05-15T20:41:04.218Z,76.33
2018-05-15T20:43:32.514Z,76.82
2018-05-15T20:46:00.103Z,77.43
2018-05-15T20:48:27.616Z,78.37
2018-05-15T20:50:55.115Z,78.54
2018-05-15T20:53:22.613Z,78.85
2018-05-15T20:55:50.103Z,78.03
2018-05-15T20:58:17.610Z,79.60
2018-05-15T21:00:45.107Z,78.42
2018-05-15T21:03:12.612Z,79.85
2018-05-15T21:05:40.127Z,80.55
2018-05-15T21:08:08.455Z,81.79
2018-05-15T21:10:35.969Z,81.48
2018-05-15T21:13:03.521Z,81.33
2018-05-15T21:15:31.072Z,80.84
2018-05-15T21:17:58.574Z,81.31
2018-05-15T21:20:26.065Z,80.78
2018-05-15T21:22:53.559Z,80.41
2018-05-15T21:25:21.065Z,79.35
2018-05-15T21:27:48.573Z,79.68
2018-05-15T21:30:16.110Z,80.59
2018-05-15T21:32:43.613Z,80.41
2018-05-15T21:35:11.119Z,79.75
2018-05-15T21:37:38.645Z,80.27
2018-05-15T21:40:06.152Z,80.17
2018-05-15T21:42:33.655Z,80.68
2018-05-15T21:45:01.211Z,80.70
2018-05-15T21:47:28.721Z,80.36
2018-05-15T21:49:56.268Z,80.51
2018-05-15T21:52:23.775Z,80.41
2018-05-15T21:54:51.275Z,80.02
2018-05-15T21:57:18.779Z,80.17
2018-05-15T21:59:46.281Z,79.84
2018-05-15T22:02:13.807Z,80.14
2018-05-15T22:04:41.315Z,80.40
2018-05-15T22:07:08.839Z,80.22
2018-05-15T22:09:36.344Z,79.84
2018-05-15T22:12:15.534Z,80.37
2018-05-15T22:14:54.775Z,81.95
2018-05-15T22:17:34.161Z,82.32
2018-05-15T22:20:13.579Z,82.70
2018-05-15T22:22:40.544Z,82.86
2018-05-15T22:25:08.050Z,82.95
2018-05-15T22:27:35.564Z,82.69
2018-05-15T22:30:04.456Z,82.34
2018-05-15T22:32:31.968Z,82.68
2018-05-15T22:34:59.473Z,82.30
2018-05-15T22:37:26.971Z,82.22
2018-05-15T22:39:54.506Z,82.15
2018-05-15T22:42:22.015Z,81.79
2018-05-15T22:44:49.535Z,81.88
2018-05-15T22:47:17.093Z,81.46
2018-05-15T22:49:44.591Z,81.44
2018-05-15T22:52:12.133Z,80.84
2018-05-15T22:54:39.696Z,81.26
2018-05-15T22:57:07.195Z,81.23
2018-05-15T22:59:34.686Z,80.91
2018-05-15T23:02:02.198Z,80.97
2018-05-15T23:04:29.770Z,80.59
2018-05-15T23:06:57.281Z,80.88
2018-05-15T23:09:24.818Z,80.64
2018-05-15T23:11:52.338Z,80.19
2018-05-15T23:14:19.899Z,80.27
2018-05-15T23:16:47.411Z,79.90
2018-05-15T23:19:15.906Z,80.42
2018-05-15T23:21:43.413Z,80.28
2018-05-15T23:24:10.978Z,80.56
2018-05-15T23:26:40.414Z,80.30
2018-05-15T23:29:07.922Z,80.13
2018-05-15T23:31:35.427Z,80.57
2018-05-15T23:34:02.963Z,80.04
2018-05-15T23:36:30.511Z,80.41
2018-05-15T23:38:58.010Z,80.46
2018-05-15T23:41:25.519Z,80.99
2018-05-15T23:43:53.027Z,81.78
2018-05-15T23:46:20.579Z,81.37
2018-05-15T23:48:48.091Z,81.27
2018-05-15T23:51:15.634Z,81.37
2018-05-15T23:53:43.139Z,81.12
2018-05-15T23:56:10.713Z,81.04
2018-05-15T23:58:38.246Z,80.35
